Time;durP1;ratioP1;P1;durP2;ratioP2;P2;SDS_P1;SDS_P2;PMS_P1;PMS_P2;Temp;Humidity;BMP_temperature;BMP_pressure;BME280_temperature;BME280_humidity;BME280_pressure;Samples;Min_cycle;Max_cycle;Signal;HPM_P1;HPM_P2
2023/04/19 00:00:42;;;;;;;12.77;9.90;;;11.70;99.90;;;;;;5034672;28;20322;-65
2023/04/19 00:03:09;;;;;;;10.97;9.93;;;11.70;99.90;;;;;;5034576;28;20194;-64
2023/04/19 00:05:37;;;;;;;10.23;9.20;;;11.70;99.90;;;;;;5034611;28;20183;-65
2023/04/19 00:08:03;;;;;;;10.50;8.73;;;11.70;99.90;;;;;;5034499;28;20230;-65
2023/04/19 00:10:29;;;;;;;9.57;8.50;;;11.70;99.90;;;;;;5033929;28;20234;-65
2023/04/19 00:12:54;;;;;;;10.33;8.50;;;11.70;99.90;;;;;;5034614;28;20183;-66
2023/04/19 00:15:20;;;;;;;11.60;10.00;;;11.70;99.90;;;;;;5034512;28;20207;-65
2023/04/19 00:17:45;;;;;;;10.77;9.63;;;11.70;99.90;;;;;;5032799;28;20269;-65
2023/04/19 00:20:12;;;;;;;12.57;9.00;;;11.60;99.90;;;;;;5033976;28;20207;-65
2023/04/19 00:22:38;;;;;;;10.83;9.73;;;11.60;99.90;;;;;;5034141;28;20180;-65
2023/04/19 00:25:04;;;;;;;10.33;8.87;;;11.60;99.90;;;;;;5034564;28;20506;-65
2023/04/19 00:27:30;;;;;;;10.93;9.10;;;11.60;99.90;;;;;;5033777;28;20211;-65
2023/04/19 00:29:58;;;;;;;10.67;8.93;;;11.60;99.90;;;;;;5033894;28;20180;-66
2023/04/19 00:32:24;;;;;;;9.50;8.53;;;11.60;99.90;;;;;;5034041;28;20491;-66
2023/04/19 00:34:50;;;;;;;10.77;9.67;;;11.60;99.90;;;;;;5033794;28;20175;-65
2023/04/19 00:37:16;;;;;;;9.87;8.93;;;11.60;99.90;;;;;;5034252;28;20182;-66
2023/04/19 00:39:41;;;;;;;12.30;9.27;;;11.60;99.90;;;;;;5033428;28;20276;-66
2023/04/19 00:42:07;;;;;;;10.43;9.27;;;11.60;99.90;;;;;;5033994;28;20199;-65
2023/04/19 00:44:33;;;;;;;11.73;10.43;;;11.60;99.90;;;;;;5031654;28;20261;-66
2023/04/19 00:46:59;;;;;;;9.70;8.77;;;11.60;99.90;;;;;;5034097;28;20624;-65
2023/04/19 00:49:26;;;;;;;10.50;9.07;;;11.60;99.90;;;;;;5034017;28;20210;-65
2023/04/19 00:51:52;;;;;;;13.07;9.00;;;11.60;99.90;;;;;;5033426;28;20188;-65
2023/04/19 00:54:19;;;;;;;9.73;8.83;;;11.50;99.90;;;;;;5033657;28;20186;-65
2023/04/19 00:56:45;;;;;;;10.60;9.03;;;11.50;99.90;;;;;;5033618;28;20622;-65
2023/04/19 00:59:13;;;;;;;10.57;8.63;;;11.50;99.90;;;;;;5033184;28;20298;-65
2023/04/19 01:01:38;;;;;;;10.87;9.77;;;11.50;99.90;;;;;;5033615;28;20258;-65
2023/04/19 01:04:05;;;;;;;9.70;8.80;;;11.50;99.90;;;;;;5033616;28;20313;-65
2023/04/19 01:06:31;;;;;;;10.43;9.33;;;11.50;99.90;;;;;;5033929;28;20711;-65
2023/04/19 01:08:57;;;;;;;12.40;8.87;;;11.50;99.90;;;;;;5033359;28;20203;-65
2023/04/19 01:11:23;;;;;;;11.37;10.30;;;11.50;99.90;;;;;;5033321;28;20188;-66
2023/04/19 01:13:49;;;;;;;10.53;9.63;;;11.50;99.90;;;;;;5033396;28;20274;-65
2023/04/19 01:16:15;;;;;;;11.97;10.77;;;11.50;99.90;;;;;;5033361;28;20289;-65
2023/04/19 01:18:40;;;;;;;10.97;9.93;;;11.50;99.90;;;;;;5033148;28;20199;-65
2023/04/19 01:21:07;;;;;;;9.80;8.90;;;11.50;99.90;;;;;;5032865;28;20192;-65
2023/04/19 01:23:33;;;;;;;11.90;8.83;;;11.40;99.90;;;;;;5033097;28;20256;-65
2023/04/19 01:26:01;;;;;;;10.77;9.63;;;11.40;99.90;;;;;;5032837;28;20187;-65
2023/04/19 01:28:27;;;;;;;11.83;9.37;;;11.40;99.90;;;;;;5032879;28;20260;-65
2023/04/19 01:30:53;;;;;;;10.40;9.40;;;11.30;99.90;;;;;;5032822;28;20709;-65
2023/04/19 01:33:20;;;;;;;10.70;9.70;;;11.30;99.90;;;;;;5032831;28;20191;-65
2023/04/19 01:35:46;;;;;;;10.33;9.20;;;11.30;99.90;;;;;;5033071;28;20595;-65
2023/04/19 01:38:12;;;;;;;10.90;9.73;;;11.30;99.90;;;;;;5032330;28;20200;-66
2023/04/19 01:40:38;;;;;;;11.90;10.90;;;11.30;99.90;;;;;;5032643;28;20560;-65
2023/04/19 01:43:03;;;;;;;11.33;10.23;;;11.30;99.90;;;;;;5032818;28;20168;-65
2023/04/19 01:45:29;;;;;;;12.13;11.00;;;11.30;99.90;;;;;;5032958;28;20185;-65
2023/04/19 01:47:55;;;;;;;11.03;9.93;;;11.30;99.90;;;;;;5032365;28;20234;-66
2023/04/19 01:50:21;;;;;;;13.80;9.77;;;11.30;99.90;;;;;;5032444;28;20254;-65
2023/04/19 01:52:46;;;;;;;11.13;9.83;;;11.30;99.90;;;;;;5032427;28;20713;-65
2023/04/19 01:55:12;;;;;;;11.93;10.27;;;11.30;99.90;;;;;;5031339;28;20217;-65
2023/04/19 01:57:38;;;;;;;11.07;9.93;;;11.30;99.90;;;;;;5032550;28;20207;-65
2023/04/19 02:00:05;;;;;;;10.10;9.23;;;11.30;99.90;;;;;;5032191;28;20214;-65
2023/04/19 02:02:30;;;;;;;11.23;10.13;;;11.20;99.90;;;;;;5032380;28;20219;-65
2023/04/19 02:04:56;;;;;;;14.30;10.87;;;11.10;99.90;;;;;;5032482;28;20213;-65
2023/04/19 02:07:22;;;;;;;11.73;10.50;;;11.10;99.90;;;;;;5032552;28;20175;-65
2023/04/19 02:09:48;;;;;;;11.40;10.20;;;11.10;99.90;;;;;;5031918;28;20187;-65
2023/04/19 02:12:13;;;;;;;12.83;10.37;;;11.10;99.90;;;;;;5032280;28;20175;-66
2023/04/19 02:14:39;;;;;;;12.03;10.80;;;11.10;99.90;;;;;;5031831;28;20182;-66
2023/04/19 02:17:05;;;;;;;15.17;10.97;;;11.10;99.90;;;;;;5033283;28;20235;-68
2023/04/19 02:19:30;;;;;;;11.43;10.43;;;11.10;99.90;;;;;;5033732;28;20190;-70
2023/04/19 02:21:56;;;;;;;14.37;12.00;;;11.00;99.90;;;;;;5033866;28;20187;-69
2023/04/19 02:24:25;;;;;;;12.20;11.00;;;11.00;99.90;;;;;;5033629;28;20653;-70
2023/04/19 02:26:51;;;;;;;15.03;13.57;;;11.00;99.90;;;;;;5032510;28;20637;-71
2023/04/19 02:29:17;;;;;;;14.27;12.73;;;11.00;99.90;;;;;;5033686;28;20218;-68
2023/04/19 02:31:45;;;;;;;11.60;10.53;;;10.90;99.90;;;;;;5032234;28;20641;-70
2023/04/19 02:34:11;;;;;;;12.13;10.87;;;10.90;99.90;;;;;;5033737;28;20175;-68
2023/04/19 02:36:36;;;;;;;12.00;10.47;;;10.90;99.90;;;;;;5033414;28;20237;-71
2023/04/19 02:39:04;;;;;;;11.50;10.40;;;10.90;99.90;;;;;;5034113;28;20195;-67
2023/04/19 02:41:30;;;;;;;17.07;10.77;;;11.00;99.90;;;;;;5033306;28;20183;-68
2023/04/19 02:43:55;;;;;;;12.77;11.50;;;11.00;99.90;;;;;;5033841;28;20256;-66
2023/04/19 02:46:21;;;;;;;12.00;10.87;;;11.00;99.90;;;;;;5033461;28;20190;-70
2023/04/19 02:48:46;;;;;;;13.37;12.00;;;11.10;99.90;;;;;;5033665;28;20199;-70
2023/04/19 02:51:16;;;;;;;13.57;12.27;;;11.10;99.90;;;;;;5032792;28;20183;-69
2023/04/19 02:53:42;;;;;;;14.30;13.00;;;11.10;99.90;;;;;;5032744;28;20253;-68
2023/04/19 02:56:08;;;;;;;15.43;13.83;;;11.10;99.90;;;;;;5033047;28;20234;-70
2023/04/19 02:58:34;;;;;;;16.97;15.37;;;11.20;99.90;;;;;;5032796;28;20219;-69
2023/04/19 03:00:59;;;;;;;16.17;14.67;;;11.20;99.90;;;;;;5033066;28;20176;-69
2023/04/19 03:03:25;;;;;;;15.60;14.20;;;11.20;99.90;;;;;;5032724;28;20176;-67
2023/04/19 03:05:51;;;;;;;14.33;12.90;;;11.20;99.90;;;;;;5033025;28;20271;-69
2023/04/19 03:08:17;;;;;;;12.97;11.87;;;11.20;99.90;;;;;;5033170;28;20191;-72
2023/04/19 03:10:42;;;;;;;15.10;12.10;;;11.20;99.90;;;;;;5032336;28;20708;-72
2023/04/19 03:13:08;;;;;;;11.97;10.87;;;11.20;99.90;;;;;;5032783;28;20619;-69
2023/04/19 03:15:34;;;;;;;12.00;10.90;;;11.30;99.90;;;;;;5033359;28;20281;-68
2023/04/19 03:18:00;;;;;;;11.20;10.10;;;11.20;99.90;;;;;;5031663;28;20227;-70
2023/04/19 03:20:26;;;;;;;11.87;10.77;;;11.20;99.90;;;;;;5032823;28;20535;-69
2023/04/19 03:22:51;;;;;;;10.60;9.60;;;11.20;99.90;;;;;;5032010;28;20176;-72
2023/04/19 03:25:17;;;;;;;10.20;9.07;;;11.20;99.90;;;;;;5031755;28;20229;-72
2023/04/19 03:27:44;;;;;;;9.03;8.03;;;11.20;99.90;;;;;;5032884;28;20294;-68
2023/04/19 03:30:11;;;;;;;10.40;9.30;;;11.20;99.90;;;;;;5033635;28;20190;-70
2023/04/19 03:32:37;;;;;;;12.73;9.70;;;11.20;99.90;;;;;;5031229;28;20179;-71
2023/04/19 03:35:03;;;;;;;10.53;9.40;;;11.20;99.90;;;;;;5032047;28;20180;-71
2023/04/19 03:37:29;;;;;;;10.73;9.57;;;11.20;99.90;;;;;;5032474;28;20206;-70
2023/04/19 03:39:54;;;;;;;11.47;9.83;;;11.20;99.90;;;;;;5032336;28;20171;-70
2023/04/19 03:42:20;;;;;;;10.97;9.73;;;11.20;99.90;;;;;;5031145;28;20541;-70
2023/04/19 03:44:46;;;;;;;10.83;9.33;;;11.20;99.90;;;;;;5032566;28;20180;-70
2023/04/19 03:47:11;;;;;;;10.43;9.53;;;11.10;99.90;;;;;;5032573;28;20187;-69
2023/04/19 03:49:37;;;;;;;12.43;9.67;;;11.10;99.90;;;;;;5032199;28;20194;-71
2023/04/19 03:52:03;;;;;;;16.57;9.80;;;11.10;99.90;;;;;;5032913;28;20225;-69
2023/04/19 03:54:28;;;;;;;10.73;9.57;;;11.10;99.90;;;;;;5032199;28;20230;-70
2023/04/19 03:56:54;;;;;;;11.37;10.27;;;11.10;99.90;;;;;;5032671;28;20211;-69
2023/04/19 03:59:19;;;;;;;11.03;10.07;;;11.10;99.90;;;;;;5032306;28;20195;-67
2023/04/19 04:01:45;;;;;;;11.17;10.07;;;11.10;99.90;;;;;;5032230;28;20183;-66
2023/04/19 04:04:11;;;;;;;11.63;10.43;;;11.10;99.90;;;;;;5032588;28;20175;-70
2023/04/19 04:06:37;;;;;;;12.33;11.10;;;11.10;99.90;;;;;;5030690;28;20534;-70
2023/04/19 04:09:03;;;;;;;10.33;9.33;;;11.10;99.90;;;;;;5032525;28;20211;-67
2023/04/19 04:11:29;;;;;;;10.70;9.70;;;11.10;99.90;;;;;;5032357;28;20187;-69
2023/04/19 04:13:57;;;;;;;13.03;9.77;;;11.10;99.90;;;;;;5032413;28;20184;-71
2023/04/19 04:16:23;;;;;;;10.67;9.53;;;11.10;99.90;;;;;;5032338;28;20207;-69
2023/04/19 04:18:48;;;;;;;15.70;10.40;;;11.10;99.90;;;;;;5034231;28;20258;-70
2023/04/19 04:21:14;;;;;;;11.43;10.20;;;11.10;99.90;;;;;;5036225;28;20183;-69
2023/04/19 04:23:40;;;;;;;11.77;10.60;;;11.10;99.90;;;;;;5035951;28;20172;-69
2023/04/19 04:26:08;;;;;;;11.33;10.23;;;11.10;99.90;;;;;;5035950;28;20446;-68
2023/04/19 04:28:34;;;;;;;11.57;10.43;;;11.10;99.90;;;;;;5035683;28;20219;-69
2023/04/19 04:31:00;;;;;;;11.53;10.43;;;11.10;99.90;;;;;;5034180;28;20237;-71
2023/04/19 04:33:27;;;;;;;13.03;10.97;;;11.10;99.90;;;;;;5035850;28;20592;-71
2023/04/19 04:35:53;;;;;;;12.03;11.00;;;11.10;99.90;;;;;;5035647;28;20303;-70
2023/04/19 04:38:20;;;;;;;10.63;9.60;;;11.10;99.90;;;;;;5035376;28;20203;-69
2023/04/19 04:40:52;;;;;;;13.87;10.90;;;11.10;99.90;;;;;;5035488;28;20641;-69
2023/04/19 04:43:22;;;;;;;10.50;9.50;;;11.10;99.90;;;;;;5036448;28;20240;-67
2023/04/19 04:45:48;;;;;;;11.10;10.17;;;11.20;99.90;;;;;;5035651;28;20184;-70
2023/04/19 04:48:13;;;;;;;13.13;10.07;;;11.20;99.90;;;;;;5035760;28;20195;-69
2023/04/19 04:50:39;;;;;;;11.43;10.40;;;11.20;99.90;;;;;;5035614;28;20660;-69
2023/04/19 04:53:05;;;;;;;11.17;10.00;;;11.20;99.90;;;;;;5035835;28;20268;-69
2023/04/19 04:55:31;;;;;;;12.80;11.57;;;11.20;99.90;;;;;;5035510;28;20203;-70
2023/04/19 04:57:56;;;;;;;11.63;9.60;;;11.20;99.90;;;;;;5035544;28;20800;-68
2023/04/19 05:00:22;;;;;;;11.57;10.03;;;11.20;99.90;;;;;;5035181;28;20178;-69
2023/04/19 05:02:48;;;;;;;11.17;9.83;;;11.20;99.90;;;;;;5035210;28;20263;-70
2023/04/19 05:05:14;;;;;;;12.17;9.73;;;11.20;99.90;;;;;;5035291;28;20176;-71
2023/04/19 05:07:39;;;;;;;10.47;9.47;;;11.20;99.90;;;;;;5034539;28;20708;-70
2023/04/19 05:10:06;;;;;;;10.97;9.77;;;11.20;99.90;;;;;;5035294;28;20633;-70
2023/04/19 05:12:32;;;;;;;10.37;9.37;;;11.20;99.90;;;;;;5035453;28;20207;-69
2023/04/19 05:14:58;;;;;;;10.27;9.30;;;11.20;99.90;;;;;;5035398;28;20199;-68
2023/04/19 05:17:23;;;;;;;9.87;8.87;;;11.20;99.90;;;;;;5033618;28;20670;-66
2023/04/19 05:19:49;;;;;;;10.67;9.57;;;11.20;99.90;;;;;;5032724;28;20195;-64
2023/04/19 05:22:15;;;;;;;9.43;8.53;;;11.20;99.90;;;;;;5032761;28;20176;-64
2023/04/19 05:24:41;;;;;;;10.90;9.53;;;11.30;99.90;;;;;;5033507;28;20224;-63
2023/04/19 05:27:06;;;;;;;12.67;9.47;;;11.30;99.90;;;;;;5033157;28;20182;-63
2023/04/19 05:29:32;;;;;;;9.80;8.60;;;11.30;99.90;;;;;;5032703;28;20630;-62
2023/04/19 05:31:58;;;;;;;9.97;8.00;;;11.30;99.90;;;;;;5033156;28;20175;-65
2023/04/19 05:34:23;;;;;;;9.43;8.43;;;11.30;99.90;;;;;;5032788;28;20183;-63
2023/04/19 05:36:49;;;;;;;9.40;8.60;;;11.40;99.90;;;;;;5033002;28;20198;-63
2023/04/19 05:39:15;;;;;;;13.63;9.57;;;11.50;99.90;;;;;;5032726;28;20252;-63
2023/04/19 05:41:41;;;;;;;9.13;8.33;;;11.50;99.90;;;;;;5031624;28;20183;-63
2023/04/19 05:44:07;;;;;;;9.53;8.73;;;11.50;99.90;;;;;;5032400;28;20217;-65
2023/04/19 05:46:32;;;;;;;10.60;9.43;;;11.60;99.90;;;;;;5032646;28;20180;-65
2023/04/19 05:48:58;;;;;;;8.87;8.00;;;11.60;99.90;;;;;;5032339;28;20223;-65
2023/04/19 05:51:24;;;;;;;8.13;7.40;;;11.60;99.90;;;;;;5032551;28;20179;-63
2023/04/19 05:53:49;;;;;;;8.03;7.30;;;11.60;99.90;;;;;;5032617;28;20171;-65
2023/04/19 05:56:15;;;;;;;8.47;7.70;;;11.60;99.90;;;;;;5032197;28;20191;-65
2023/04/19 05:58:40;;;;;;;8.33;7.47;;;11.60;99.90;;;;;;5032289;28;20206;-65
2023/04/19 06:01:06;;;;;;;8.63;7.83;;;11.60;99.90;;;;;;5032682;28;20235;-65
2023/04/19 06:03:32;;;;;;;8.30;7.70;;;11.60;99.90;;;;;;5032333;28;20199;-65
2023/04/19 06:05:58;;;;;;;7.70;6.90;;;11.60;99.90;;;;;;5032484;28;20179;-65
2023/04/19 06:08:24;;;;;;;7.03;6.40;;;11.60;99.90;;;;;;5032042;28;20205;-66
2023/04/19 06:10:49;;;;;;;8.13;7.40;;;11.60;99.90;;;;;;5032049;28;20206;-65
2023/04/19 06:13:15;;;;;;;6.93;6.33;;;11.60;99.90;;;;;;5032274;28;20199;-66
2023/04/19 06:15:41;;;;;;;6.63;6.13;;;11.70;99.90;;;;;;5031918;28;20207;-66
2023/04/19 06:18:09;;;;;;;7.47;6.77;;;11.70;99.90;;;;;;5032243;28;20687;-66
2023/04/19 06:20:36;;;;;;;6.80;6.20;;;11.70;99.90;;;;;;5031595;28;20199;-66
2023/04/19 06:23:02;;;;;;;7.93;7.13;;;11.60;99.90;;;;;;5032291;28;20203;-65
2023/04/19 06:25:27;;;;;;;6.83;6.33;;;11.60;99.90;;;;;;5032058;28;20277;-65
2023/04/19 06:27:53;;;;;;;7.10;6.40;;;11.60;99.90;;;;;;5031927;28;20257;-66
2023/04/19 06:30:19;;;;;;;7.43;6.60;;;11.60;99.90;;;;;;5029297;28;20675;-66
2023/04/19 06:32:45;;;;;;;7.17;6.47;;;11.70;99.90;;;;;;5018975;28;20183;-64
2023/04/19 06:35:11;;;;;;;8.10;7.30;;;11.70;99.90;;;;;;5031635;28;20191;-65
2023/04/19 06:37:36;;;;;;;6.97;6.37;;;11.70;99.90;;;;;;5031162;28;20278;-65
2023/04/19 06:40:07;;;;;;;7.87;6.80;;;11.70;99.90;;;;;;5031595;28;20182;-64
2023/04/19 06:42:35;;;;;;;7.67;7.03;;;11.70;99.90;;;;;;5030974;28;20175;-64
2023/04/19 06:45:00;;;;;;;6.77;6.17;;;11.70;99.90;;;;;;5031634;28;20198;-65
2023/04/19 06:47:28;;;;;;;6.33;5.90;;;11.90;99.90;;;;;;5031531;28;20243;-65
2023/04/19 06:49:54;;;;;;;6.40;5.80;;;12.00;99.90;;;;;;5030806;28;20395;-65
2023/04/19 06:52:20;;;;;;;7.03;6.40;;;12.10;99.90;;;;;;5031394;28;20179;-65
2023/04/19 06:54:48;;;;;;;7.93;6.90;;;12.10;99.90;;;;;;5031173;28;20176;-66
2023/04/19 06:57:13;;;;;;;6.63;6.13;;;12.20;99.90;;;;;;5031063;28;20200;-66
2023/04/19 06:59:39;;;;;;;9.37;6.00;;;12.30;99.90;;;;;;5030849;28;20179;-64
2023/04/19 07:02:05;;;;;;;6.70;6.20;;;12.40;99.90;;;;;;5031500;28;20178;-65
2023/04/19 07:04:31;;;;;;;6.43;5.83;;;12.60;99.90;;;;;;5030390;28;20649;-66
2023/04/19 07:06:57;;;;;;;7.53;6.40;;;12.80;99.90;;;;;;5030843;28;20186;-65
2023/04/19 07:09:22;;;;;;;6.53;6.13;;;12.80;99.90;;;;;;5030260;28;20199;-65
2023/04/19 07:11:50;;;;;;;5.83;5.40;;;13.00;99.90;;;;;;5031088;28;20184;-66
2023/04/19 07:14:17;;;;;;;5.40;5.00;;;13.20;99.90;;;;;;5030818;28;20219;-66
2023/04/19 07:16:44;;;;;;;6.70;6.10;;;13.40;99.90;;;;;;5030907;28;20226;-65
2023/04/19 07:19:10;;;;;;;6.43;5.93;;;13.60;99.90;;;;;;5030931;28;20495;-64
2023/04/19 07:21:37;;;;;;;6.60;6.07;;;13.80;99.90;;;;;;5030888;28;20237;-62
2023/04/19 07:24:03;;;;;;;5.67;5.17;;;14.20;99.90;;;;;;5031163;28;20613;-66
2023/04/19 07:26:28;;;;;;;6.37;5.77;;;14.60;99.90;;;;;;5030632;28;20180;-65
2023/04/19 07:28:54;;;;;;;5.70;4.87;;;15.00;99.90;;;;;;5030793;28;20234;-65
2023/04/19 07:31:20;;;;;;;5.17;4.80;;;15.20;99.90;;;;;;5030888;28;20637;-65
2023/04/19 07:33:46;;;;;;;6.00;5.33;;;15.20;99.90;;;;;;5030723;28;20176;-65
2023/04/19 07:36:11;;;;;;;5.10;4.80;;;15.00;99.90;;;;;;5031040;28;20207;-65
2023/04/19 07:38:37;;;;;;;5.80;5.30;;;14.80;99.90;;;;;;5030072;28;20257;-65
2023/04/19 07:41:04;;;;;;;5.67;5.13;;;14.80;99.90;;;;;;5030119;28;20180;-66
2023/04/19 07:43:30;;;;;;;5.43;5.03;;;14.90;99.90;;;;;;5029537;28;20171;-65
2023/04/19 07:45:55;;;;;;;5.07;4.63;;;15.30;99.90;;;;;;5030504;28;20203;-66
2023/04/19 07:48:21;;;;;;;5.70;4.93;;;15.50;99.90;;;;;;5029570;28;20249;-66
2023/04/19 07:50:48;;;;;;;5.73;5.33;;;15.80;99.90;;;;;;5030417;28;20191;-64
2023/04/19 07:53:13;;;;;;;9.53;4.70;;;16.30;99.90;;;;;;5033017;28;20195;-63
2023/04/19 07:55:39;;;;;;;5.47;4.90;;;16.70;99.90;;;;;;5034251;28;20203;-62
2023/04/19 07:58:05;;;;;;;5.43;4.93;;;16.90;99.90;;;;;;5034750;28;20227;-64
2023/04/19 08:00:33;;;;;;;5.70;5.20;;;16.90;99.90;;;;;;5033877;28;20172;-63
2023/04/19 08:02:59;;;;;;;7.67;4.70;;;16.60;99.90;;;;;;5034538;28;20179;-62
2023/04/19 08:05:25;;;;;;;5.33;4.93;;;16.20;99.90;;;;;;5034568;28;20187;-63
2023/04/19 08:07:52;;;;;;;5.73;5.30;;;16.00;99.90;;;;;;5034049;28;20203;-64
2023/04/19 08:10:18;;;;;;;6.30;5.77;;;15.80;99.90;;;;;;5033715;28;20680;-64
2023/04/19 08:12:44;;;;;;;5.83;5.40;;;15.90;99.90;;;;;;5034581;28;20580;-64
2023/04/19 08:15:10;;;;;;;5.43;4.97;;;16.30;99.90;;;;;;5034427;28;20175;-64
2023/04/19 08:17:35;;;;;;;5.83;5.33;;;16.70;99.90;;;;;;5034176;28;20206;-64
2023/04/19 08:20:01;;;;;;;5.40;4.90;;;17.30;99.90;;;;;;5034155;28;20550;-65
2023/04/19 08:22:27;;;;;;;5.87;5.27;;;17.60;99.90;;;;;;5034311;28;20237;-63
2023/04/19 08:24:52;;;;;;;6.07;5.57;;;17.70;99.90;;;;;;5033417;28;20183;-63
2023/04/19 08:27:19;;;;;;;6.00;5.50;;;17.60;99.90;;;;;;5034159;28;20664;-63
2023/04/19 08:29:45;;;;;;;6.47;5.97;;;17.50;99.90;;;;;;5033283;28;20186;-65
2023/04/19 08:32:11;;;;;;;5.83;5.33;;;17.60;99.90;;;;;;5034109;28;20175;-65
2023/04/19 08:34:38;;;;;;;6.77;5.73;;;17.80;99.90;;;;;;5033672;28;20187;-65
2023/04/19 08:37:04;;;;;;;5.47;5.07;;;18.10;99.90;;;;;;5033716;28;20272;-63
2023/04/19 08:39:31;;;;;;;4.80;4.30;;;18.50;99.90;;;;;;5033739;28;20175;-64
2023/04/19 08:42:04;;;;;;;4.82;4.22;;;18.80;99.90;;;;;;5033609;28;20314;-64
2023/04/19 08:44:31;;;;;;;6.22;5.82;;;19.20;98.70;;;;;;5032200;28;20179;-63
2023/04/19 08:46:58;;;;;;;5.55;5.05;;;19.10;97.40;;;;;;5033684;28;20175;-63
2023/04/19 08:49:24;;;;;;;5.37;4.83;;;18.70;96.80;;;;;;5033130;28;20286;-63
2023/04/19 08:51:51;;;;;;;5.67;4.77;;;18.50;96.70;;;;;;5033777;28;20692;-66
2023/04/19 08:54:18;;;;;;;5.90;5.30;;;18.60;97.50;;;;;;5033520;28;20179;-66
2023/04/19 08:56:44;;;;;;;6.63;6.13;;;18.60;96.30;;;;;;5033826;28;20203;-65
2023/04/19 08:59:09;;;;;;;5.10;4.70;;;18.40;95.40;;;;;;5032718;28;20196;-64
2023/04/19 09:01:35;;;;;;;6.80;5.53;;;18.10;95.30;;;;;;5033884;28;20191;-64
2023/04/19 09:04:06;;;;;;;5.33;4.93;;;18.00;95.80;;;;;;5032739;28;20222;-67
2023/04/19 09:06:39;;;;;;;5.03;4.63;;;18.30;96.00;;;;;;5033445;28;20172;-65
2023/04/19 09:09:19;;;;;;;5.23;4.73;;;18.40;94.80;;;;;;5033306;28;20187;-65
2023/04/19 09:11:45;;;;;;;5.83;5.33;;;18.30;94.60;;;;;;5033656;28;20168;-65
2023/04/19 09:14:14;;;;;;;5.90;5.50;;;18.20;94.10;;;;;;5031747;28;20237;-66
2023/04/19 09:16:41;;;;;;;8.70;5.37;;;18.00;92.30;;;;;;5033102;28;20207;-65
2023/04/19 09:19:11;;;;;;;5.13;4.73;;;17.80;92.50;;;;;;5032829;28;20238;-66
2023/04/19 09:21:37;;;;;;;6.03;5.53;;;17.60;93.70;;;;;;5032630;28;20178;-65
2023/04/19 09:24:03;;;;;;;5.70;5.20;;;17.50;92.50;;;;;;5032238;28;20245;-65
2023/04/19 09:26:29;;;;;;;5.37;4.97;;;17.50;93.00;;;;;;5032879;28;20180;-66
2023/04/19 09:29:03;;;;;;;5.80;5.30;;;17.40;91.90;;;;;;5032248;28;20218;-65
2023/04/19 09:31:31;;;;;;;6.80;5.70;;;17.30;92.90;;;;;;5032899;28;20183;-64
2023/04/19 09:33:57;;;;;;;5.40;5.00;;;17.30;90.80;;;;;;5033120;28;20179;-64
2023/04/19 09:36:41;;;;;;;5.93;5.47;;;17.20;91.80;;;;;;5032803;28;20280;-66
2023/04/19 09:39:07;;;;;;;7.90;4.40;;;17.40;91.00;;;;;;5032861;28;20183;-65
2023/04/19 09:41:33;;;;;;;4.70;4.40;;;17.50;90.80;;;;;;5032590;28;20723;-65
2023/04/19 09:44:14;;;;;;;4.50;4.20;;;17.40;89.00;;;;;;5032088;28;20171;-64
2023/04/19 09:46:45;;;;;;;5.30;4.97;;;17.20;89.10;;;;;;5032356;28;20194;-65
2023/04/19 09:49:16;;;;;;;5.73;4.80;;;16.90;87.40;;;;;;5032597;28;20198;-65
2023/04/19 09:51:43;;;;;;;5.20;4.80;;;16.90;90.40;;;;;;5032375;28;20179;-66
2023/04/19 09:54:13;;;;;;;5.30;5.00;;;16.90;89.90;;;;;;5032732;28;20175;-64
2023/04/19 09:56:40;;;;;;;5.30;5.00;;;17.00;91.60;;;;;;5032221;28;20203;-65
2023/04/19 09:59:06;;;;;;;4.80;4.50;;;17.30;91.60;;;;;;5032497;28;20238;-64
2023/04/19 10:01:37;;;;;;;5.37;4.87;;;17.30;88.80;;;;;;5032277;28;20525;-64
2023/04/19 10:04:05;;;;;;;4.73;4.40;;;17.30;86.20;;;;;;5032687;28;20230;-65
2023/04/19 10:06:33;;;;;;;4.93;3.90;;;17.30;83.90;;;;;;5032358;28;20242;-64
2023/04/19 10:09:03;;;;;;;4.00;3.70;;;17.40;87.00;;;;;;5030255;28;20203;-65
2023/04/19 10:11:37;;;;;;;4.17;3.90;;;17.60;83.30;;;;;;5032289;28;20191;-66
2023/04/19 10:14:06;;;;;;;4.77;4.37;;;17.50;82.40;;;;;;5032233;28;20691;-66
2023/04/19 10:16:32;;;;;;;4.00;3.70;;;17.60;83.00;;;;;;5031092;28;20222;-64
2023/04/19 10:18:58;;;;;;;3.90;3.63;;;17.70;86.20;;;;;;5032499;28;20223;-64
2023/04/19 10:21:27;;;;;;;4.40;4.00;;;17.50;85.30;;;;;;5032035;28;20255;-64
2023/04/19 10:23:55;;;;;;;3.93;3.73;;;17.50;84.50;;;;;;5032156;28;20266;-65
2023/04/19 10:26:21;;;;;;;3.90;3.50;;;17.80;85.90;;;;;;5032004;28;20175;-66
2023/04/19 10:28:47;;;;;;;3.87;3.67;;;18.10;80.20;;;;;;5031681;28;20238;-65
2023/04/19 10:31:13;;;;;;;4.70;4.00;;;18.50;84.60;;;;;;5031481;28;20183;-65
2023/04/19 10:33:40;;;;;;;4.23;3.93;;;18.30;78.90;;;;;;5031962;28;20171;-64
2023/04/19 10:36:10;;;;;;;3.93;3.63;;;18.20;81.80;;;;;;5031794;28;20208;-64
2023/04/19 10:38:46;;;;;;;4.03;3.77;;;18.00;78.70;;;;;;5031531;28;20219;-65
2023/04/19 10:41:15;;;;;;;5.90;3.83;;;17.80;75.50;;;;;;5029222;28;20187;-64
2023/04/19 10:44:08;;;;;;;4.77;4.33;;;17.90;79.70;;;;;;5031723;28;20175;-64
2023/04/19 10:46:34;;;;;;;5.17;3.87;;;17.90;77.00;;;;;;5031345;28;20190;-64
2023/04/19 10:49:01;;;;;;;4.33;4.03;;;18.00;76.70;;;;;;5031560;28;20636;-65
2023/04/19 10:51:31;;;;;;;4.60;4.20;;;18.00;75.50;;;;;;5031096;28;20185;-64
2023/04/19 10:54:01;;;;;;;4.87;4.47;;;17.80;75.90;;;;;;5031618;28;20182;-64
2023/04/19 10:56:35;;;;;;;3.93;3.63;;;17.70;73.10;;;;;;5031053;28;20207;-64
2023/04/19 10:59:00;;;;;;;4.20;3.90;;;17.50;71.60;;;;;;5031264;28;20559;-64
2023/04/19 11:01:39;;;;;;;4.00;3.70;;;17.60;74.50;;;;;;5031180;28;20194;-64
2023/04/19 11:04:06;;;;;;;3.83;3.53;;;18.10;75.00;;;;;;5031516;28;20554;-64
2023/04/19 11:06:36;;;;;;;4.33;3.77;;;18.30;75.00;;;;;;5031236;28;20599;-65
2023/04/19 11:09:04;;;;;;;5.23;3.40;;;18.40;70.00;;;;;;5031138;28;20191;-64
2023/04/19 11:11:38;;;;;;;3.60;3.30;;;18.40;72.40;;;;;;5031234;28;20217;-65
2023/04/19 11:14:07;;;;;;;4.30;4.00;;;18.50;70.60;;;;;;5031107;28;20179;-64
2023/04/19 11:16:32;;;;;;;4.70;3.87;;;18.60;73.70;;;;;;5030978;28;20584;-65
2023/04/19 11:18:58;;;;;;;3.03;2.83;;;18.50;67.50;;;;;;5030528;28;20195;-64
2023/04/19 11:21:24;;;;;;;5.17;3.63;;;18.30;67.90;;;;;;5031334;28;20175;-65
2023/04/19 11:24:08;;;;;;;3.90;3.70;;;18.50;65.00;;;;;;5030827;28;20262;-65
2023/04/19 11:26:34;;;;;;;5.73;3.80;;;18.50;69.80;;;;;;5031130;28;20285;-65
2023/04/19 11:29:00;;;;;;;3.77;3.10;;;18.50;61.90;;;;;;5030593;28;20711;-64
2023/04/19 11:31:26;;;;;;;3.37;3.17;;;18.60;64.30;;;;;;5031038;28;20541;-65
2023/04/19 11:33:52;;;;;;;3.00;2.80;;;18.80;62.60;;;;;;5030849;28;20183;-64
2023/04/19 11:36:17;;;;;;;4.10;3.80;;;19.00;62.80;;;;;;5031233;28;20678;-64
2023/04/19 11:38:49;;;;;;;3.33;3.13;;;18.60;59.60;;;;;;5030754;28;20282;-66
2023/04/19 11:41:15;;;;;;;5.57;3.30;;;18.60;59.80;;;;;;5029877;28;20266;-66
2023/04/19 11:43:43;;;;;;;3.40;3.20;;;18.60;58.00;;;;;;5030530;28;20362;-65
2023/04/19 11:46:10;;;;;;;3.60;3.40;;;18.50;57.10;;;;;;5031135;28;20183;-66
2023/04/19 11:48:37;;;;;;;3.30;3.10;;;18.60;59.70;;;;;;5030014;28;20244;-65
2023/04/19 11:51:03;;;;;;;3.43;3.23;;;18.60;58.30;;;;;;5030710;28;20179;-65
2023/04/19 11:53:31;;;;;;;3.53;3.33;;;18.70;57.20;;;;;;5031003;28;20183;-65
2023/04/19 11:56:06;;;;;;;3.50;3.30;;;18.80;56.70;;;;;;5030880;28;20206;-65
2023/04/19 11:58:38;;;;;;;5.30;3.87;;;18.90;55.70;;;;;;5030453;28;20236;-67
2023/04/19 12:01:08;;;;;;;4.10;3.90;;;18.50;52.90;;;;;;5030778;28;20172;-65
2023/04/19 12:03:35;;;;;;;3.80;3.50;;;18.50;56.30;;;;;;5030744;28;20160;-66
2023/04/19 12:06:02;;;;;;;4.33;3.90;;;18.60;53.90;;;;;;5030946;28;20175;-65
2023/04/19 12:08:38;;;;;;;3.87;3.57;;;18.50;53.30;;;;;;5030541;28;20218;-64
2023/04/19 12:11:05;;;;;;;3.93;3.63;;;18.60;55.80;;;;;;5031031;28;20173;-64
2023/04/19 12:13:32;;;;;;;4.33;4.03;;;18.50;54.80;;;;;;5030975;28;20178;-64
2023/04/19 12:15:58;;;;;;;4.10;3.90;;;18.80;58.80;;;;;;5030974;28;20714;-64
2023/04/19 12:18:24;;;;;;;3.80;3.60;;;18.70;55.30;;;;;;5030543;28;20195;-64
2023/04/19 12:20:51;;;;;;;3.43;3.23;;;18.60;53.30;;;;;;5030328;28;20229;-65
2023/04/19 12:23:19;;;;;;;4.40;4.03;;;18.20;51.50;;;;;;5028504;28;20168;-62
2023/04/19 12:25:46;;;;;;;4.40;4.10;;;18.00;55.50;;;;;;5030614;28;20175;-63
2023/04/19 12:28:13;;;;;;;3.93;3.73;;;17.90;52.50;;;;;;5030304;28;20587;-62
2023/04/19 12:30:39;;;;;;;5.10;3.70;;;17.70;52.90;;;;;;5030097;28;20194;-64
2023/04/19 12:33:06;;;;;;;4.97;4.67;;;17.80;57.50;;;;;;5030660;28;20203;-65
2023/04/19 12:35:31;;;;;;;4.17;3.87;;;17.70;51.40;;;;;;5030540;28;20761;-64
2023/04/19 12:37:58;;;;;;;3.90;3.70;;;17.50;51.70;;;;;;5030279;28;20291;-64